Time;durP1;ratioP1;P1;durP2;ratioP2;P2;SDS_P1;SDS_P2;PMS_P1;PMS_P2;Temp;Humidity;BMP_temperature;BMP_pressure;BME280_temperature;BME280_humidity;BME280_pressure;Samples;Min_cycle;Max_cycle;Signal;HPM_P1;HPM_P2
2023/07/20 00:01:25;;;;;;;;;;;;;;;13.36;100.00;101625.31;5003886;28;19921;-82
2023/07/20 00:03:54;;;;;;;;;;;;;;;13.29;100.00;101621.47;5022453;28;20253;-82
2023/07/20 00:06:32;;;;;;;;;;;;;;;13.25;100.00;101629.91;5026914;28;19917;-81
2023/07/20 00:08:58;;;;;;;;;;;;;;;13.20;100.00;101627.63;5021871;28;20353;-81
2023/07/20 00:11:25;;;;;;;;;;;;;;;13.16;100.00;101618.19;5019290;28;19951;-82
2023/07/20 00:13:51;;;;;;;;;;;;;;;13.12;100.00;101632.81;5018876;28;19967;-81
2023/07/20 00:16:16;;;;;;;;;;;;;;;13.08;100.00;101626.03;5019598;28;19920;-84
2023/07/20 00:18:41;;;;;;;;;;;;;;;13.01;100.00;101628.41;5018091;28;19924;-84
2023/07/20 00:21:07;;;;;;;;;;;;;;;12.95;100.00;101628.97;5018854;28;20004;-84
2023/07/20 00:23:32;;;;;;;;;;;;;;;12.91;100.00;101627.53;5018994;28;19920;-83
2023/07/20 00:25:57;;;;;;;;;;;;;;;12.89;100.00;101638.34;5002370;28;19917;-83
2023/07/20 00:28:23;;;;;;;;;;;;;;;12.85;100.00;101628.91;5018947;28;19920;-83
2023/07/20 00:30:48;;;;;;;;;;;;;;;12.79;100.00;101630.28;5018866;28;19939;-82
2023/07/20 00:33:16;;;;;;;;;;;;;;;12.74;100.00;101634.38;5018714;28;19921;-83
2023/07/20 00:35:42;;;;;;;;;;;;;;;12.70;100.00;101633.78;5018458;28;20254;-83
2023/07/20 00:38:07;;;;;;;;;;;;;;;12.65;100.00;101620.81;5037483;28;19971;-83
2023/07/20 00:40:39;;;;;;;;;;;;;;;12.61;100.00;101623.91;5036143;28;19916;-84
2023/07/20 00:43:04;;;;;;;;;;;;;;;12.54;100.00;101618.25;5036138;28;20373;-83
2023/07/20 00:45:30;;;;;;;;;;;;;;;12.49;100.00;101618.63;5036028;28;19917;-83
2023/07/20 00:47:57;;;;;;;;;;;;;;;12.43;100.00;101621.84;5036149;28;19927;-83
2023/07/20 00:50:22;;;;;;;;;;;;;;;12.41;100.00;101618.47;5018897;28;20015;-83
2023/07/20 00:52:48;;;;;;;;;;;;;;;12.36;100.00;101626.03;5034844;28;20014;-83
2023/07/20 00:55:14;;;;;;;;;;;;;;;12.33;100.00;101626.28;5035869;28;20357;-83
2023/07/20 00:57:42;;;;;;;;;;;;;;;12.29;100.00;101630.19;5017480;28;19920;-83
2023/07/20 01:00:08;;;;;;;;;;;;;;;12.26;100.00;101631.31;5002275;28;19913;-83
2023/07/20 01:02:33;;;;;;;;;;;;;;;12.24;100.00;101637.72;5018200;28;19920;-83
2023/07/20 01:05:02;;;;;;;;;;;;;;;12.22;100.00;101634.34;5034668;28;19909;-83
2023/07/20 01:07:43;;;;;;;;;;;;;;;12.23;100.00;101636.91;5036117;28;19912;-83
2023/07/20 01:10:21;;;;;;;;;;;;;;;12.30;100.00;101630.06;5018945;28;19920;-84
2023/07/20 01:12:47;;;;;;;;;;;;;;;12.39;100.00;101633.78;5017710;28;19917;-84
2023/07/20 01:15:13;;;;;;;;;;;;;;;12.44;100.00;101636.03;5001750;28;19916;-84
2023/07/20 01:17:38;;;;;;;;;;;;;;;12.40;100.00;101629.28;5036355;28;19966;-83
2023/07/20 01:20:04;;;;;;;;;;;;;;;12.33;100.00;101626.28;5018273;28;20361;-85
2023/07/20 01:22:29;;;;;;;;;;;;;;;12.33;100.00;101631.59;5034686;28;19917;-85
2023/07/20 01:25:12;;;;;;;;;;;;;;;12.38;100.00;101636.56;5018010;28;20250;-83
2023/07/20 01:27:56;;;;;;;;;;;;;;;12.45;100.00;101640.38;5017804;28;20006;-85
2023/07/20 01:30:34;;;;;;;;;;;;;;;12.52;100.00;101641.56;5017632;28;19968;-83
2023/07/20 01:33:00;;;;;;;;;;;;;;;12.60;100.00;101646.22;5018393;28;19913;-84
2023/07/20 01:35:28;;;;;;;;;;;;;;;12.65;100.00;101647.53;5001786;28;19924;-84
2023/07/20 01:37:53;;;;;;;;;;;;;;;12.69;100.00;101648.97;5018109;28;20269;-84
2023/07/20 01:40:19;;;;;;;;;;;;;;;12.72;100.00;101650.53;5034607;28;19913;-85
2023/07/20 01:42:46;;;;;;;;;;;;;;;12.74;100.00;101642.38;5017458;28;19913;-86
2023/07/20 01:45:11;;;;;;;;;;;;;;;12.76;100.00;101641.25;5017365;28;19936;-85
2023/07/20 01:47:36;;;;;;;;;;;;;;;12.76;100.00;101645.75;5017663;28;20357;-86
2023/07/20 01:50:02;;;;;;;;;;;;;;;12.68;100.00;101641.09;5017546;28;20356;-85
2023/07/20 01:52:27;;;;;;;;;;;;;;;12.57;100.00;101634.00;5035084;28;20395;-85
2023/07/20 01:54:55;;;;;;;;;;;;;;;12.47;100.00;101647.28;5017446;28;19919;-84
2023/07/20 01:57:21;;;;;;;;;;;;;;;12.42;100.00;101644.19;5017108;28;19913;-84
2023/07/20 01:59:47;;;;;;;;;;;;;;;12.40;100.00;101647.94;5034484;28;19917;-85
2023/07/20 02:02:12;;;;;;;;;;;;;;;12.41;100.00;101657.66;5000670;28;20272;-83
2023/07/20 02:04:37;;;;;;;;;;;;;;;12.44;100.00;101649.38;5000829;28;19963;-87
2023/07/20 02:07:03;;;;;;;;;;;;;;;12.52;100.00;101654.91;5016769;28;19917;-84
2023/07/20 02:09:28;;;;;;;;;;;;;;;12.61;100.00;101658.59;5016823;28;19921;-83
2023/07/20 02:11:53;;;;;;;;;;;;;;;12.68;100.00;101649.94;5000464;28;19917;-83
2023/07/20 02:14:23;;;;;;;;;;;;;;;12.76;100.00;101645.75;5033917;28;19919;-83
2023/07/20 02:16:52;;;;;;;;;;;;;;;12.80;100.00;101644.50;5001170;28;19970;-83
2023/07/20 02:19:26;;;;;;;;;;;;;;;12.82;100.00;101640.72;5017294;28;19971;-84
2023/07/20 02:21:53;;;;;;;;;;;;;;;12.80;100.00;101642.69;5034138;28;19935;-84
2023/07/20 02:24:20;;;;;;;;;;;;;;;12.73;100.00;101638.00;5016809;28;19967;-84
2023/07/20 02:26:46;;;;;;;;;;;;;;;12.64;100.00;101639.66;5016617;28;20369;-85
2023/07/20 02:29:11;;;;;;;;;;;;;;;12.58;100.00;101638.34;4999971;28;19964;-84
2023/07/20 02:31:39;;;;;;;;;;;;;;;12.52;100.00;101636.22;5016997;28;19923;-84
2023/07/20 02:34:04;;;;;;;;;;;;;;;12.44;100.00;101644.88;5016794;28;20409;-84
2023/07/20 02:36:30;;;;;;;;;;;;;;;12.37;100.00;101643.72;5016188;28;19963;-84
2023/07/20 02:38:56;;;;;;;;;;;;;;;12.29;100.00;101643.53;5017331;28;19923;-84
2023/07/20 02:41:26;;;;;;;;;;;;;;;12.20;100.00;101647.84;5000177;28;19944;-84
2023/07/20 02:43:51;;;;;;;;;;;;;;;12.13;100.00;101636.81;5034401;28;19913;-84
2023/07/20 02:46:17;;;;;;;;;;;;;;;12.08;100.00;101641.72;5016921;28;19913;-83
2023/07/20 02:48:42;;;;;;;;;;;;;;;12.04;100.00;101647.44;5016064;28;19917;-83
2023/07/20 02:51:12;;;;;;;;;;;;;;;12.01;100.00;101637.03;5034550;28;20007;-83
2023/07/20 02:53:37;;;;;;;;;;;;;;;11.96;100.00;101645.41;5001035;28;19967;-83
2023/07/20 02:56:03;;;;;;;;;;;;;;;11.94;100.00;101647.34;5033821;28;19917;-82
2023/07/20 02:58:30;;;;;;;;;;;;;;;11.87;100.00;101655.00;5033144;28;19928;-83
2023/07/20 03:00:55;;;;;;;;;;;;;;;11.79;100.00;101654.78;5000746;28;19917;-83
2023/07/20 03:03:20;;;;;;;;;;;;;;;11.71;100.00;101654.56;5034026;28;20040;-85
2023/07/20 03:05:46;;;;;;;;;;;;;;;11.64;100.00;101662.22;5033935;28;19963;-83
2023/07/20 03:08:11;;;;;;;;;;;;;;;11.58;100.00;101650.22;5016028;28;19921;-85
2023/07/20 03:10:43;;;;;;;;;;;;;;;11.57;100.00;101655.69;5016198;28;19957;-85
2023/07/20 03:13:08;;;;;;;;;;;;;;;11.53;100.00;101659.59;5034171;28;20012;-83
2023/07/20 03:15:34;;;;;;;;;;;;;;;11.51;100.00;101667.72;5000469;28;19952;-84
2023/07/20 03:17:59;;;;;;;;;;;;;;;11.54;100.00;101670.13;5033788;28;19995;-83
2023/07/20 03:20:25;;;;;;;;;;;;;;;11.63;100.00;101672.03;5016665;28;20322;-84
2023/07/20 03:22:51;;;;;;;;;;;;;;;11.70;100.00;101672.38;5033882;28;19917;-83
2023/07/20 03:25:19;;;;;;;;;;;;;;;11.81;100.00;101672.34;5015900;28;19917;-83
2023/07/20 03:27:45;;;;;;;;;;;;;;;11.94;100.00;101685.53;5016496;28;19916;-83
2023/07/20 03:30:13;;;;;;;;;;;;;;;12.02;100.00;101684.91;5016595;28;20265;-83
2023/07/20 03:32:38;;;;;;;;;;;;;;;12.10;100.00;101682.44;4999281;28;19967;-83
2023/07/20 03:35:04;;;;;;;;;;;;;;;12.15;100.00;101679.38;5033847;28;19913;-83
2023/07/20 03:37:34;;;;;;;;;;;;;;;12.15;100.00;101680.25;5032692;28;19921;-84
2023/07/20 03:40:00;;;;;;;;;;;;;;;12.15;100.00;101679.38;5000460;28;19917;-82
2023/07/20 03:42:28;;;;;;;;;;;;;;;12.11;100.00;101683.28;5033916;28;19920;-83
2023/07/20 03:44:54;;;;;;;;;;;;;;;12.04;100.00;101688.28;5033466;28;19917;-83
2023/07/20 03:47:19;;;;;;;;;;;;;;;11.97;100.00;101685.28;5033772;28;19924;-83
2023/07/20 03:49:44;;;;;;;;;;;;;;;11.90;100.00;101680.56;5033303;28;20328;-83
2023/07/20 03:52:13;;;;;;;;;;;;;;;11.82;100.00;101675.84;5034075;28;19921;-83
2023/07/20 03:54:38;;;;;;;;;;;;;;;11.77;100.00;101678.06;5036925;28;20265;-83
2023/07/20 03:57:04;;;;;;;;;;;;;;;11.70;100.00;101680.38;5037507;28;19920;-83
2023/07/20 03:59:29;;;;;;;;;;;;;;;11.66;100.00;101681.63;5037272;28;20007;-82
2023/07/20 04:01:57;;;;;;;;;;;;;;;11.64;100.00;101681.75;5003439;28;19917;-83
2023/07/20 04:04:23;;;;;;;;;;;;;;;11.66;100.00;101670.94;5037388;28;19913;-83
2023/07/20 04:06:48;;;;;;;;;;;;;;;11.71;100.00;101676.72;5019297;28;19913;-83
2023/07/20 04:09:13;;;;;;;;;;;;;;;11.82;100.00;101674.03;5037325;28;19927;-83
2023/07/20 04:11:39;;;;;;;;;;;;;;;11.94;100.00;101676.69;5019310;28;19952;-83
2023/07/20 04:14:04;;;;;;;;;;;;;;;12.06;100.00;101682.81;5037394;28;19920;-82
2023/07/20 04:16:30;;;;;;;;;;;;;;;12.17;100.00;101690.78;5036707;28;19920;-83
2023/07/20 04:18:56;;;;;;;;;;;;;;;12.24;100.00;101683.97;5018897;28;19913;-84
2023/07/20 04:21:23;;;;;;;;;;;;;;;12.31;100.00;101687.78;5036741;28;19967;-83
2023/07/20 04:23:48;;;;;;;;;;;;;;;12.41;100.00;101684.34;5036753;28;19913;-83
2023/07/20 04:26:14;;;;;;;;;;;;;;;12.49;100.00;101679.19;5036458;28;19920;-83
2023/07/20 04:28:42;;;;;;;;;;;;;;;12.59;100.00;101685.44;5037201;28;19920;-83
2023/07/20 04:31:14;;;;;;;;;;;;;;;12.68;100.00;101687.31;5036425;28;19960;-84
2023/07/20 04:33:43;;;;;;;;;;;;;;;12.79;100.00;101690.88;5019645;28;19967;-84
2023/07/20 04:36:09;;;;;;;;;;;;;;;12.89;100.00;101691.78;5036186;28;19913;-83
2023/07/20 04:38:34;;;;;;;;;;;;;;;12.98;100.00;101692.81;5037581;28;20012;-84
2023/07/20 04:40:59;;;;;;;;;;;;;;;13.08;100.00;101693.69;5019186;28;19964;-83
2023/07/20 04:43:26;;;;;;;;;;;;;;;13.13;100.00;101704.81;5036637;28;19955;-83
2023/07/20 04:45:51;;;;;;;;;;;;;;;13.15;100.00;101696.66;5037316;28;19916;-83
2023/07/20 04:48:26;;;;;;;;;;;;;;;13.13;100.00;101696.78;5019001;28;19924;-83
2023/07/20 04:50:51;;;;;;;;;;;;;;;13.14;100.00;101698.50;5018439;28;19970;-85
2023/07/20 04:53:26;;;;;;;;;;;;;;;13.19;100.00;101703.44;5002051;28;20007;-84
2023/07/20 04:55:51;;;;;;;;;;;;;;;13.20;100.00;101697.94;5036248;28;20388;-84
2023/07/20 04:58:18;;;;;;;;;;;;;;;13.22;100.00;101695.97;5035973;28;19917;-84
2023/07/20 05:00:46;;;;;;;;;;;;;;;13.23;100.00;101705.69;5018471;28;19913;-84
2023/07/20 05:03:11;;;;;;;;;;;;;;;13.29;100.00;101698.13;5035593;28;20388;-84
2023/07/20 05:05:37;;;;;;;;;;;;;;;13.35;100.00;101702.97;5035154;28;19956;-84
2023/07/20 05:08:04;;;;;;;;;;;;;;;13.39;100.00;101705.22;5018892;28;19924;-84
2023/07/20 05:10:33;;;;;;;;;;;;;;;13.46;100.00;101707.34;5035533;28;19916;-85
2023/07/20 05:13:05;;;;;;;;;;;;;;;13.52;100.00;101707.63;5036062;28;19913;-85
2023/07/20 05:15:33;;;;;;;;;;;;;;;13.58;100.00;101699.09;5018284;28;19913;-84
2023/07/20 05:18:00;;;;;;;;;;;;;;;13.65;100.00;101715.41;5035441;28;20432;-83
2023/07/20 05:20:26;;;;;;;;;;;;;;;13.66;100.00;101708.22;5002000;28;19920;-84
2023/07/20 05:22:52;;;;;;;;;;;;;;;13.61;100.00;101711.31;5019498;28;19924;-82
2023/07/20 05:25:22;;;;;;;;;;;;;;;13.52;100.00;101707.63;5001691;28;19913;-82
2023/07/20 05:27:50;;;;;;;;;;;;;;;13.46;100.00;101707.34;5018424;28;19920;-82
2023/07/20 05:30:15;;;;;;;;;;;;;;;13.40;100.00;101706.91;5035538;28;19913;-82
2023/07/20 05:32:47;;;;;;;;;;;;;;;13.38;100.00;101708.88;5018518;28;19995;-81
2023/07/20 05:35:13;;;;;;;;;;;;;;;13.36;100.00;101705.50;5017760;28;19913;-84
2023/07/20 05:37:40;;;;;;;;;;;;;;;13.35;100.00;101719.84;5017409;28;19947;-82
2023/07/20 05:40:07;;;;;;;;;;;;;;;13.30;100.00;101708.69;5017083;28;20287;-86
2023/07/20 05:42:35;;;;;;;;;;;;;;;13.30;100.00;101715.84;5034956;28;19924;-84
2023/07/20 05:45:01;;;;;;;;;;;;;;;13.28;100.00;101709.78;5034749;28;19917;-85
2023/07/20 05:47:26;;;;;;;;;;;;;;;13.28;100.00;101707.94;5034457;28;20357;-82
2023/07/20 05:49:55;;;;;;;;;;;;;;;13.29;100.00;101698.97;5033563;28;20032;-83
2023/07/20 05:52:20;;;;;;;;;;;;;;;13.31;100.00;101704.16;5000682;28;19917;-83
2023/07/20 05:54:45;;;;;;;;;;;;;;;13.32;100.00;101705.88;5037805;28;19920;-83
2023/07/20 05:57:11;;;;;;;;;;;;;;;13.35;100.00;101708.31;5034451;28;20287;-82
2023/07/20 05:59:38;;;;;;;;;;;;;;;13.39;100.00;101705.22;5017027;28;19917;-82
2023/07/20 06:02:03;;;;;;;;;;;;;;;13.47;100.00;101706.38;5000632;28;19917;-83
2023/07/20 06:04:29;;;;;;;;;;;;;;;13.56;100.00;101710.88;5016312;28;19924;-82
2023/07/20 06:06:54;;;;;;;;;;;;;;;13.62;100.00;101710.34;5016262;28;19916;-82
2023/07/20 06:09:19;;;;;;;;;;;;;;;13.68;100.00;101706.28;5034250;28;20336;-82
2023/07/20 06:11:47;;;;;;;;;;;;;;;13.79;100.00;101706.13;5016697;28;20278;-84
2023/07/20 06:14:18;;;;;;;;;;;;;;;13.88;100.00;101718.69;5016557;28;19937;-84
2023/07/20 06:16:46;;;;;;;;;;;;;;;13.87;100.00;101716.16;5033876;28;20345;-83
2023/07/20 06:19:11;;;;;;;;;;;;;;;13.96;100.00;101723.34;5000833;28;19917;-84
2023/07/20 06:21:37;;;;;;;;;;;;;;;14.10;100.00;101720.22;4999456;28;19924;-83
2023/07/20 06:24:02;;;;;;;;;;;;;;;14.34;100.00;101720.78;5016535;28;19979;-83
2023/07/20 06:26:29;;;;;;;;;;;;;;;14.40;100.00;101721.06;5016385;28;20328;-84
2023/07/20 06:28:55;;;;;;;;;;;;;;;14.38;100.00;101727.56;5034140;28;19917;-83
2023/07/20 06:31:22;;;;;;;;;;;;;;;14.28;100.00;101725.72;5016245;28;19927;-83
2023/07/20 06:33:47;;;;;;;;;;;;;;;14.35;100.00;101726.00;5034086;28;19913;-84
2023/07/20 06:36:13;;;;;;;;;;;;;;;14.57;100.00;101718.63;5016554;28;19924;-85
2023/07/20 06:38:38;;;;;;;;;;;;;;;14.92;100.00;101719.84;5033199;28;20376;-84
2023/07/20 06:41:03;;;;;;;;;;;;;;;15.22;100.00;101724.09;5034230;28;20019;-84
2023/07/20 06:43:29;;;;;;;;;;;;;;;15.20;100.00;101720.75;5032484;28;19913;-83
2023/07/20 06:45:55;;;;;;;;;;;;;;;15.16;100.00;101730.06;5032410;28;20004;-83
2023/07/20 06:48:21;;;;;;;;;;;;;;;15.31;100.00;101725.06;5034143;28;20272;-82
2023/07/20 06:50:46;;;;;;;;;;;;;;;15.42;100.00;101730.22;5015987;28;19913;-83
2023/07/20 06:53:11;;;;;;;;;;;;;;;15.51;100.00;101725.81;5033364;28;19920;-83
2023/07/20 06:55:39;;;;;;;;;;;;;;;15.45;100.00;101729.94;5033616;28;19913;-82
2023/07/20 06:58:04;;;;;;;;;;;;;;;15.43;100.00;101728.38;5033227;28;19920;-82
2023/07/20 07:00:30;;;;;;;;;;;;;;;15.53;100.00;101729.19;5033102;28;19917;-82
2023/07/20 07:02:58;;;;;;;;;;;;;;;15.64;100.00;101720.91;5032146;28;20365;-82
2023/07/20 07:05:23;;;;;;;;;;;;;;;15.67;100.00;101728.69;5033272;28;19917;-82
2023/07/20 07:07:49;;;;;;;;;;;;;;;15.97;100.00;101723.13;5016557;28;19967;-83
2023/07/20 07:10:14;;;;;;;;;;;;;;;16.18;100.00;101726.34;4999939;28;19917;-85
2023/07/20 07:12:40;;;;;;;;;;;;;;;16.36;100.00;101725.47;5015679;28;20292;-85
2023/07/20 07:15:08;;;;;;;;;;;;;;;16.53;100.00;101727.28;5033752;28;19917;-82
2023/07/20 07:17:34;;;;;;;;;;;;;;;16.69;100.00;101725.72;5033490;28;19917;-82
2023/07/20 07:19:59;;;;;;;;;;;;;;;16.91;100.00;101721.69;5033388;28;19913;-82
2023/07/20 07:22:25;;;;;;;;;;;;;;;17.10;100.00;101729.50;5033095;28;20011;-78
2023/07/20 07:24:50;;;;;;;;;;;;;;;17.20;100.00;101734.78;5033337;28;19924;-80
2023/07/20 07:27:16;;;;;;;;;;;;;;;17.38;100.00;101726.63;5033599;28;19913;-84
2023/07/20 07:29:52;;;;;;;;;;;;;;;17.65;100.00;101731.94;5037333;28;19912;-83
2023/07/20 07:32:17;;;;;;;;;;;;;;;17.76;100.00;101729.75;5038161;28;19919;-85
2023/07/20 07:34:47;;;;;;;;;;;;;;;17.80;100.00;101727.56;5020365;28;20015;-83
2023/07/20 07:37:13;;;;;;;;;;;;;;;17.80;100.00;101727.56;5020006;28;19959;-84
2023/07/20 07:39:38;;;;;;;;;;;;;;;17.69;100.00;101727.88;5036927;28;19917;-87
2023/07/20 07:42:12;;;;;;;;;;;;;;;17.52;100.00;101730.53;5020497;28;19917;-86
2023/07/20 07:44:37;;;;;;;;;;;;;;;17.26;100.00;101738.69;5022304;28;20281;-90
2023/07/20 07:47:03;;;;;;;;;;;;;;;17.18;100.00;101738.63;5037638;28;19912;-81
2023/07/20 07:49:29;;;;;;;;;;;;;;;17.15;100.00;101730.88;5019392;28;20027;-91
2023/07/20 07:51:54;;;;;;;;;;;;;;;17.19;100.00;101735.78;5020847;28;19948;-86
2023/07/20 07:54:20;;;;;;;;;;;;;;;17.24;100.00;101738.84;5037296;28;20289;-86
2023/07/20 07:56:45;;;;;;;;;;;;;;;17.21;100.00;101733.78;5036942;28;19920;-87
2023/07/20 07:59:11;;;;;;;;;;;;;;;17.25;100.00;101731.59;5035905;28;19921;-90
2023/07/20 08:01:36;;;;;;;;;;;;;;;17.47;100.00;101730.19;5037207;28;20269;-88
2023/07/20 08:04:03;;;;;;;;;;;;;;;17.69;100.00;101733.25;5020000;28;19932;-88
2023/07/20 08:06:38;;;;;;;;;;;;;;;17.96;100.00;101727.63;5036108;28;19921;-88
2023/07/20 08:09:05;;;;;;;;;;;;;;;18.17;100.00;101733.53;5037076;28;20326;-85
2023/07/20 08:11:32;;;;;;;;;;;;;;;18.25;100.00;101742.47;5036438;28;19913;-83
2023/07/20 08:13:59;;;;;;;;;;;;;;;18.22;100.00;101737.41;5036387;28;20373;-85
2023/07/20 08:16:24;;;;;;;;;;;;;;;18.22;100.00;101736.59;5036924;28;19913;-86
2023/07/20 08:21:41;;;;;;;;;;;;;;;18.26;100.00;101730.69;5025629;28;20339;-85
2023/07/20 08:24:07;;;;;;;;;;;;;;;18.40;100.00;101731.84;5018033;28;19913;-89
2023/07/20 08:26:32;;;;;;;;;;;;;;;18.56;100.00;101731.00;5002216;28;20272;-93
2023/07/20 08:28:58;;;;;;;;;;;;;;;18.66;100.00;101736.19;5017991;28;19913;-86
2023/07/20 08:31:23;;;;;;;;;;;;;;;18.66;100.00;101733.50;5018730;28;19919;-90
2023/07/20 08:33:48;;;;;;;;;;;;;;;18.73;100.00;101731.81;5018292;28;19920;-87
2023/07/20 08:36:40;;;;;;;;;;;;;;;18.80;100.00;101729.28;5019013;28;19913;-86
2023/07/20 08:39:07;;;;;;;;;;;;;;;18.84;100.00;101741.41;5014107;28;19913;-88
2023/07/20 08:41:39;;;;;;;;;;;;;;;18.81;100.00;101736.34;5018374;28;19966;-86
2023/07/20 08:44:08;;;;;;;;;;;;;;;19.03;100.00;101735.66;5019376;28;19917;-86
2023/07/20 08:46:45;;;;;;;;;;;;;;;19.20;100.00;101733.75;5036026;28;20354;-85
2023/07/20 08:58:42;;;;;;;;;;;;;;;19.73;100.00;101739.41;4911093;28;20442;-85
2023/07/20 09:01:23;;;;;;;;;;;;;;;;;;;;;
2023/07/20 09:03:50;;;;;;;;;;;;;;;19.64;100.00;101735.06;5002388;28;20019;-85
2023/07/20 09:06:18;;;;;;;;;;;;;;;19.51;100.00;101726.69;5036062;28;19959;-87
2023/07/20 09:08:43;;;;;;;;;;;;;;;19.77;100.00;101729.09;5018463;28;20345;-86
2023/07/20 09:11:11;;;;;;;;;;;;;;;20.31;100.00;101727.38;5018654;28;19923;-87
2023/07/20 09:13:37;;;;;;;;;;;;;;;20.88;100.00;101737.66;5036386;28;20019;-87
2023/07/20 09:16:04;;;;;;;;;;;;;;;21.42;98.39;101736.53;5038775;28;19955;-86
2023/07/20 09:18:31;;;;;;;;;;;;;;;21.32;79.40;101727.84;5018695;28;19920;-83
2023/07/20 09:21:16;;;;;;;;;;;;;;;21.94;98.54;101717.53;5017771;28;20346;-83
2023/07/20 09:23:42;;;;;;;;;;;;;;;22.60;97.99;101722.72;5032500;28;19982;-84
2023/07/20 09:26:16;;;;;;;;;;;;;;;23.14;92.91;101723.03;5002122;28;20357;-88
2023/07/20 09:29:07;;;;;;;;;;;;;;;23.54;80.37;101725.94;5018415;28;19963;-88
2023/07/20 09:37:45;;;;;;;;;;;;;;;22.68;80.85;101725.25;4979391;28;19964;-88
2023/07/20 09:40:10;;;;;;;;;;;;;;;22.27;78.60;101722.41;5030440;28;20301;-86
2023/07/20 09:42:37;;;;;;;;;;;;;;;22.47;88.73;101719.91;5035023;28;19913;-88
2023/07/20 09:45:02;;;;;;;;;;;;;;;23.24;77.49;101720.81;5035425;28;20381;-90
2023/07/20 09:47:33;;;;;;;;;;;;;;;23.46;62.99;101726.13;5018216;28;20002;-87
2023/07/20 09:49:59;;;;;;;;;;;;;;;23.90;64.25;101724.78;5017831;28;19925;-87
2023/07/20 09:52:25;;;;;;;;;;;;;;;23.94;61.11;101726.91;5034644;28;20413;-87
2023/07/20 09:54:56;;;;;;;;;;;;;;;24.09;69.50;101720.44;5017107;28;20008;-85
2023/07/20 09:57:53;;;;;;;;;;;;;;;24.36;72.26;101715.00;5017038;28;19916;-84
2023/07/20 10:00:20;;;;;;;;;;;;;;;24.27;68.79;101720.66;5026971;28;19913;-87
2023/07/20 10:03:26;;;;;;;;;;;;;;;;;;;;;
2023/07/20 10:11:55;;;;;;;;;;;;;;;25.38;60.80;101725.47;4974587;28;19969;-92
2023/07/20 10:14:34;;;;;;;;;;;;;;;;;;;;;
2023/07/20 10:20:31;;;;;;;;;;;;;;;25.67;60.55;101724.09;4917188;29;20003;-88
2023/07/20 10:29:22;;;;;;;;;;;;;;;24.92;56.22;101721.88;5001450;28;19913;-88
2023/07/20 10:31:56;;;;;;;;;;;;;;;24.75;59.51;101716.88;5034184;28;19913;-86
2023/07/20 10:40:28;;;;;;;;;;;;;;;24.62;57.59;101720.44;5033582;28;19963;-88
2023/07/20 10:43:01;;;;;;;;;;;;;;;25.14;56.61;101717.81;5034675;28;19921;-87
2023/07/20 10:45:39;;;;;;;;;;;;;;;25.69;53.44;101720.09;5016560;28;19920;-84
2023/07/20 10:48:17;;;;;;;;;;;;;;;25.65;51.96;101715.31;5034500;28;19913;-87
2023/07/20 10:50:44;;;;;;;;;;;;;;;25.75;52.58;101710.22;5033880;28;19912;-87
2023/07/20 10:53:10;;;;;;;;;;;;;;;26.20;50.72;101706.56;5033716;28;19921;-86
2023/07/20 10:55:37;;;;;;;;;;;;;;;26.35;46.97;101703.50;5018050;28;19913;-86
2023/07/20 10:58:26;;;;;;;;;;;;;;;26.33;47.46;101705.59;5018632;28;19952;-88
2023/07/20 11:01:13;;;;;;;;;;;;;;;26.14;47.66;101710.16;5035209;28;20335;-87
2023/07/20 11:09:52;;;;;;;;;;;;;;;26.34;50.05;101699.09;4973676;28;19916;-83
2023/07/20 11:12:44;;;;;;;;;;;;;;;26.33;47.85;101706.41;5012733;28;19917;-85
2023/07/20 11:21:41;;;;;;;;;;;;;;;27.31;46.40;101693.00;5036349;28;19916;-85
2023/07/20 11:23:52;;;;;;;;;;;;;;;27.23;45.10;101687.84;5010502;28;20296;-84
2023/07/20 11:26:20;;;;;;;;;;;;;;;27.14;47.32;101689.22;5016924;28;19920;-84
2023/07/20 11:29:04;;;;;;;;;;;;;;;;;;;;;
2023/07/20 11:31:42;;;;;;;;;;;;;;;27.12;46.27;101683.16;5035047;28;19915;-87
2023/07/20 11:40:21;;;;;;;;;;;;;;;26.81;45.51;101680.41;4977433;28;20349;-89
2023/07/20 11:49:49;;;;;;;;;;;;;;;28.07;46.16;101677.00;4954843;29;20282;-89
2023/07/20 12:01:01;;;;;;;;;;;;;;;27.33;43.37;101668.22;4897840;29;19934;-88
2023/07/20 12:03:27;;;;;;;;;;;;;;;27.56;43.22;101664.75;4928228;29;19953;-90
2023/07/20 12:05:55;;;;;;;;;;;;;;;27.42;42.53;101670.41;4953355;29;20425;-87
2023/07/20 12:08:20;;;;;;;;;;;;;;;27.48;42.51;101668.63;4954981;29;19949;-89
2023/07/20 12:10:46;;;;;;;;;;;;;;;27.64;43.75;101663.56;4953736;28;19957;-88
2023/07/20 12:13:16;;;;;;;;;;;;;;;27.32;42.44;101670.09;4953595;28;19921;-90
2023/07/20 12:15:43;;;;;;;;;;;;;;;27.13;44.80;101665.72;4955966;29;19922;-90
2023/07/20 12:24:20;;;;;;;;;;;;;;;28.10;44.08;101667.50;4899857;29;19969;-89
2023/07/20 12:27:06;;;;;;;;;;;;;;;28.49;43.04;101663.19;4951628;29;19921;-86
2023/07/20 12:35:55;;;;;;;;;;;;;;;27.50;43.47;101668.38;4956423;29;19914;-87
2023/07/20 12:38:33;;;;;;;;;;;;;;;27.25;43.64;101663.88;4983575;28;19982;-87
2023/07/20 12:41:00;;;;;;;;;;;;;;;27.21;44.12;101658.03;5009689;28;19996;-89
2023/07/20 12:43:35;;;;;;;;;;;;;;;26.70;45.41;101660.13;5036806;28;19983;-88
2023/07/20 12:46:14;;;;;;;;;;;;;;;26.76;44.53;101661.13;5018738;28;19930;-88
2023/07/20 12:48:41;;;;;;;;;;;;;;;26.87;43.43;101660.38;5036954;28;19909;-87
2023/07/20 13:00:22;;;;;;;;;;;;;;;;;;;;;
2023/07/20 13:02:48;;;;;;;;;;;;;;;27.85;41.87;101654.81;4978274;28;19921;-93
2023/07/20 13:05:17;;;;;;;;;;;;;;;28.38;42.44;101649.53;5006717;28;19945;-86
2023/07/20 13:16:44;;;;;;;;;;;;;;;26.81;43.97;101635.88;4971489;28;20362;-88
2023/07/20 13:19:15;;;;;;;;;;;;;;;26.67;44.99;101633.28;4974109;28;19921;-87
2023/07/20 13:22:04;;;;;;;;;;;;;;;;;;;;;
2023/07/20 13:25:17;;;;;;;;;;;;;;;27.14;42.10;101637.34;5018902;28;19917;-84
2023/07/20 13:33:49;;;;;;;;;;;;;;;26.53;42.54;101631.75;4955137;29;19962;-92
2023/07/20 13:36:15;;;;;;;;;;;;;;;25.85;45.14;101633.41;4994179;28;19917;-88
2023/07/20 13:38:49;;;;;;;;;;;;;;;25.50;44.62;101636.59;5017360;28;19928;-89
2023/07/20 13:41:16;;;;;;;;;;;;;;;25.63;47.67;101632.94;5017371;28;19921;-86
2023/07/20 13:43:41;;;;;;;;;;;;;;;26.09;46.51;101631.75;5035147;28;20389;-88
2023/07/20 13:46:07;;;;;;;;;;;;;;;26.08;45.02;101624.66;5016992;28;19972;-87
2023/07/20 13:48:32;;;;;;;;;;;;;;;26.18;45.51;101626.84;5017007;28;19921;-88
2023/07/20 13:50:58;;;;;;;;;;;;;;;25.97;45.58;101622.63;5034760;28;19917;-83
2023/07/20 13:53:23;;;;;;;;;;;;;;;25.38;45.54;101636.47;5017334;28;19916;-89
2023/07/20 13:55:48;;;;;;;;;;;;;;;25.10;48.26;101626.72;5017290;28;20007;-87
2023/07/20 13:58:14;;;;;;;;;;;;;;;25.45;46.01;101629.09;5034581;28;19913;-87
2023/07/20 14:00:40;;;;;;;;;;;;;;;25.86;45.91;101622.28;5016927;28;19923;-86
2023/07/20 14:03:09;;;;;;;;;;;;;;;26.16;45.30;101616.16;5034265;28;19968;-87
2023/07/20 14:05:34;;;;;;;;;;;;;;;26.40;44.71;101614.44;5016979;28;20016;-86
2023/07/20 14:07:59;;;;;;;;;;;;;;;26.41;43.68;101607.13;5017009;28;19952;-85
2023/07/20 14:10:25;;;;;;;;;;;;;;;26.52;45.11;101610.97;5034569;28;20312;-85
2023/07/20 14:12:53;;;;;;;;;;;;;;;26.73;43.72;101612.44;5016878;28;20251;-89
2023/07/20 14:15:19;;;;;;;;;;;;;;;26.05;45.01;101603.28;5000195;28;20023;-87
2023/07/20 14:17:44;;;;;;;;;;;;;;;25.74;46.28;101604.97;5033523;28;19959;-88
2023/07/20 14:20:12;;;;;;;;;;;;;;;25.42;45.82;101606.88;5016380;28;19913;-85
2023/07/20 14:22:38;;;;;;;;;;;;;;;25.86;47.79;101602.38;5033910;28;20388;-86
2023/07/20 14:25:05;;;;;;;;;;;;;;;25.78;43.27;101608.94;5034094;28;19913;-87
2023/07/20 14:27:30;;;;;;;;;;;;;;;25.93;45.28;101597.69;5032738;28;19917;-85
2023/07/20 14:30:00;;;;;;;;;;;;;;;26.14;45.64;101607.41;5032755;28;19967;-84
2023/07/20 14:32:25;;;;;;;;;;;;;;;25.75;44.89;101598.50;5016135;28;20369;-86